Time;durP1;ratioP1;P1;durP2;ratioP2;P2;SDS_P1;SDS_P2;PMS_P1;PMS_P2;Temp;Humidity;BMP_temperature;BMP_pressure;BME280_temperature;BME280_humidity;BME280_pressure;Samples;Min_cycle;Max_cycle;Signal;HPM_P1;HPM_P2
2021/09/03 00:01:29;;;;;;;7.03;6.03;;;21.70;53.60;;;;;;5013837;28;20250;-47
2021/09/03 00:03:54;;;;;;;5.87;5.37;;;21.70;53.20;;;;;;5020864;28;20557;-46
2021/09/03 00:06:20;;;;;;;7.20;6.50;;;21.70;52.90;;;;;;5016788;28;22085;-48
2021/09/03 00:08:46;;;;;;;8.97;6.60;;;21.70;53.10;;;;;;5015915;28;20241;-46
2021/09/03 00:11:11;;;;;;;7.03;6.10;;;21.80;52.90;;;;;;5013997;28;20239;-50
2021/09/03 00:13:37;;;;;;;7.70;6.13;;;21.70;52.60;;;;;;5018799;28;20197;-50
2021/09/03 00:16:03;;;;;;;8.97;6.40;;;21.60;52.70;;;;;;5023079;28;20189;-48
2021/09/03 00:18:29;;;;;;;7.23;6.40;;;21.60;53.40;;;;;;5020064;28;20311;-45
2021/09/03 00:20:55;;;;;;;9.17;7.67;;;21.50;53.90;;;;;;5018313;28;20201;-50
2021/09/03 00:23:20;;;;;;;7.03;6.27;;;21.50;53.90;;;;;;5015873;28;20471;-51
2021/09/03 00:25:46;;;;;;;7.93;6.37;;;21.50;53.70;;;;;;5019489;28;20233;-49
2021/09/03 00:28:12;;;;;;;6.60;6.00;;;21.50;54.00;;;;;;5016184;28;20208;-49
2021/09/03 00:30:37;;;;;;;7.57;6.67;;;21.50;53.50;;;;;;5019097;28;20202;-47
2021/09/03 00:33:03;;;;;;;6.93;6.23;;;21.50;53.50;;;;;;5025086;28;20239;-48
2021/09/03 00:35:29;;;;;;;9.33;7.20;;;21.50;53.60;;;;;;5031285;28;20242;-49
2021/09/03 00:37:54;;;;;;;10.13;7.43;;;21.30;53.40;;;;;;5021665;28;20194;-49
2021/09/03 00:40:20;;;;;;;7.63;6.20;;;21.40;53.90;;;;;;5020739;28;20240;-46
2021/09/03 00:42:46;;;;;;;8.07;7.27;;;21.30;53.80;;;;;;5025109;28;20271;-49
2021/09/03 00:45:14;;;;;;;7.30;6.60;;;21.30;53.90;;;;;;5030386;28;20208;-50
2021/09/03 00:47:53;;;;;;;12.43;6.37;;;21.30;54.20;;;;;;5026408;28;20736;-50
2021/09/03 00:50:18;;;;;;;8.47;6.80;;;21.40;54.30;;;;;;5031012;28;20455;-48
2021/09/03 00:52:47;;;;;;;6.90;6.10;;;21.40;54.20;;;;;;5027909;28;20802;-49
2021/09/03 00:55:13;;;;;;;7.60;6.80;;;21.40;54.20;;;;;;5030216;28;20197;-50
2021/09/03 00:57:46;;;;;;;9.10;6.77;;;21.50;54.20;;;;;;5021819;28;20517;-50
2021/09/03 01:00:12;;;;;;;6.80;6.20;;;21.50;54.10;;;;;;5025080;28;20970;-46
2021/09/03 01:02:38;;;;;;;7.20;6.50;;;21.50;54.40;;;;;;5024847;28;20448;-46
2021/09/03 01:05:05;;;;;;;7.27;6.40;;;21.50;54.00;;;;;;5020129;28;20460;-49
2021/09/03 01:07:31;;;;;;;6.77;6.03;;;21.50;53.80;;;;;;5015957;28;20483;-46
2021/09/03 01:09:56;;;;;;;7.70;6.50;;;21.40;53.70;;;;;;5017288;28;20469;-47
2021/09/03 01:12:22;;;;;;;7.87;7.07;;;21.40;53.30;;;;;;5016319;28;20201;-46
2021/09/03 01:14:47;;;;;;;8.73;7.20;;;21.30;53.30;;;;;;5019935;28;20247;-50
2021/09/03 01:17:13;;;;;;;7.40;6.60;;;21.30;53.90;;;;;;5014015;28;20228;-51
2021/09/03 01:19:39;;;;;;;7.00;6.40;;;21.30;53.10;;;;;;5019202;28;20237;-46
2021/09/03 01:22:04;;;;;;;5.97;5.47;;;21.20;53.50;;;;;;5012529;28;20198;-49
2021/09/03 01:24:30;;;;;;;7.60;6.90;;;21.10;52.90;;;;;;5014382;28;20719;-48
2021/09/03 01:26:56;;;;;;;7.73;6.63;;;21.00;53.40;;;;;;5014849;28;20229;-48
2021/09/03 01:29:21;;;;;;;8.20;6.73;;;21.00;53.70;;;;;;5021863;28;20189;-46
2021/09/03 01:31:47;;;;;;;6.73;6.13;;;21.00;53.70;;;;;;5011670;28;20282;-47
2021/09/03 01:34:13;;;;;;;5.93;5.33;;;21.00;54.60;;;;;;5014928;28;20289;-47
2021/09/03 01:36:38;;;;;;;6.80;6.20;;;21.00;54.60;;;;;;5014328;28;20228;-48
2021/09/03 01:39:04;;;;;;;8.80;6.53;;;21.00;55.10;;;;;;5015425;28;20224;-46
2021/09/03 01:41:30;;;;;;;7.83;7.03;;;20.90;55.40;;;;;;5015340;28;20669;-45
2021/09/03 01:43:55;;;;;;;7.57;6.17;;;20.90;55.00;;;;;;5017195;28;20439;-47
2021/09/03 01:46:21;;;;;;;7.30;6.60;;;20.90;54.60;;;;;;5015750;28;20236;-50
2021/09/03 01:48:47;;;;;;;7.67;6.90;;;20.90;54.70;;;;;;5015027;28;20204;-48
2021/09/03 01:51:13;;;;;;;7.00;6.30;;;20.80;54.80;;;;;;5016229;28;20204;-50
2021/09/03 01:53:39;;;;;;;7.37;6.67;;;20.80;54.80;;;;;;5014384;28;20449;-46
2021/09/03 01:56:06;;;;;;;6.77;6.17;;;20.80;54.50;;;;;;5018396;28;20447;-47
2021/09/03 01:58:32;;;;;;;7.53;6.83;;;20.70;54.70;;;;;;5014849;28;20204;-47
2021/09/03 02:00:57;;;;;;;8.70;7.13;;;20.70;55.10;;;;;;5013536;28;20444;-49
2021/09/03 02:03:23;;;;;;;7.33;6.63;;;20.60;55.10;;;;;;5020504;28;20200;-49
2021/09/03 02:05:48;;;;;;;10.30;6.73;;;20.60;55.10;;;;;;5012705;28;20252;-49
2021/09/03 02:08:14;;;;;;;7.27;6.57;;;20.60;55.10;;;;;;5014555;28;20225;-51
2021/09/03 02:10:40;;;;;;;7.17;6.40;;;20.60;55.20;;;;;;5026112;28;20563;-50
2021/09/03 02:13:05;;;;;;;8.80;6.77;;;20.70;55.40;;;;;;5017116;28;20188;-48
2021/09/03 02:15:32;;;;;;;7.77;7.07;;;20.70;55.40;;;;;;5012868;28;20603;-46
2021/09/03 02:17:57;;;;;;;7.50;6.70;;;20.70;55.60;;;;;;5010309;28;20272;-49
2021/09/03 02:20:23;;;;;;;7.70;6.90;;;20.80;55.40;;;;;;5013909;28;20848;-49
2021/09/03 02:22:48;;;;;;;9.70;7.20;;;20.80;55.60;;;;;;5012207;28;20225;-48
2021/09/03 02:25:14;;;;;;;9.03;6.70;;;20.90;55.30;;;;;;5016874;28;20288;-49
2021/09/03 02:27:40;;;;;;;6.93;6.23;;;20.70;54.50;;;;;;5015796;28;20712;-49
2021/09/03 02:30:06;;;;;;;6.97;6.30;;;20.70;55.20;;;;;;5016820;28;20642;-48
2021/09/03 02:32:32;;;;;;;6.00;5.13;;;20.70;56.00;;;;;;5016282;28;20284;-48
2021/09/03 02:34:58;;;;;;;7.07;5.70;;;20.70;55.70;;;;;;5014243;28;20453;-52
2021/09/03 02:37:23;;;;;;;6.53;5.93;;;20.70;56.40;;;;;;5013308;28;20227;-50
2021/09/03 02:39:49;;;;;;;8.00;6.50;;;20.60;55.80;;;;;;5015599;28;20198;-49
2021/09/03 02:42:14;;;;;;;7.10;6.40;;;20.50;56.10;;;;;;5011895;28;21999;-47
2021/09/03 02:44:40;;;;;;;7.20;6.50;;;20.50;56.20;;;;;;5013459;28;20197;-47
2021/09/03 02:47:06;;;;;;;9.03;7.00;;;20.40;56.20;;;;;;5012700;28;20235;-48
2021/09/03 02:49:31;;;;;;;7.77;6.97;;;20.40;55.80;;;;;;5014541;28;21468;-49
2021/09/03 02:51:57;;;;;;;7.43;6.60;;;20.40;55.90;;;;;;5011990;28;20263;-48
2021/09/03 02:54:23;;;;;;;7.40;6.70;;;20.40;55.80;;;;;;5014740;28;20770;-50
2021/09/03 02:56:48;;;;;;;8.30;7.00;;;20.40;56.00;;;;;;5019668;28;20239;-48
2021/09/03 02:59:14;;;;;;;7.40;6.17;;;20.40;55.90;;;;;;5016923;28;20770;-47
2021/09/03 03:01:39;;;;;;;7.20;6.60;;;20.40;55.90;;;;;;5017953;28;20190;-46
2021/09/03 03:04:05;;;;;;;6.73;6.03;;;20.50;55.40;;;;;;5019466;28;20217;-49
2021/09/03 03:06:30;;;;;;;8.03;7.23;;;20.50;55.20;;;;;;5021151;28;20225;-50
2021/09/03 03:08:56;;;;;;;8.13;6.63;;;20.50;55.40;;;;;;5018356;28;20562;-48
2021/09/03 03:11:22;;;;;;;7.60;6.63;;;20.50;54.90;;;;;;5022052;28;20189;-47
2021/09/03 03:13:49;;;;;;;8.70;7.10;;;20.40;54.20;;;;;;5017447;28;20197;-46
2021/09/03 03:16:15;;;;;;;9.13;7.30;;;20.40;54.60;;;;;;5018590;28;20194;-49
2021/09/03 03:18:41;;;;;;;9.20;7.00;;;20.30;54.40;;;;;;5019957;28;20482;-47
2021/09/03 03:21:07;;;;;;;6.57;5.97;;;20.30;54.60;;;;;;5015772;28;20468;-48
2021/09/03 03:23:33;;;;;;;8.20;6.50;;;20.30;55.60;;;;;;5016558;28;20453;-49
2021/09/03 03:25:59;;;;;;;6.40;5.80;;;20.30;55.80;;;;;;5016833;28;20525;-49
2021/09/03 03:28:24;;;;;;;9.20;7.10;;;20.40;55.60;;;;;;5023746;28;20192;-46
2021/09/03 03:30:50;;;;;;;7.07;6.37;;;20.40;55.30;;;;;;5018999;28;20761;-46
2021/09/03 03:33:16;;;;;;;8.43;7.60;;;20.40;54.90;;;;;;5018480;28;20279;-47
2021/09/03 03:35:41;;;;;;;7.43;6.73;;;20.40;54.90;;;;;;5026172;28;20225;-47
2021/09/03 03:38:07;;;;;;;9.50;6.63;;;20.40;55.40;;;;;;5019154;28;20201;-45
2021/09/03 03:40:32;;;;;;;7.93;7.13;;;20.30;55.30;;;;;;5016739;28;20735;-48
2021/09/03 03:42:58;;;;;;;10.00;6.30;;;20.40;56.10;;;;;;5016821;28;20830;-46
2021/09/03 03:45:24;;;;;;;10.37;6.70;;;20.40;55.10;;;;;;5020033;28;20194;-47
2021/09/03 03:47:50;;;;;;;7.27;5.97;;;20.40;55.10;;;;;;5040735;28;20197;-47
2021/09/03 03:50:16;;;;;;;7.77;6.00;;;20.40;55.30;;;;;;5023681;28;20443;-47
2021/09/03 03:52:42;;;;;;;6.47;5.87;;;20.40;55.40;;;;;;5020501;28;20300;-46
2021/09/03 03:55:08;;;;;;;7.33;6.60;;;20.40;55.10;;;;;;5024772;28;20455;-47
2021/09/03 03:57:34;;;;;;;8.90;8.00;;;20.40;54.60;;;;;;5023162;28;20194;-46
2021/09/03 03:59:59;;;;;;;7.33;6.63;;;20.40;53.60;;;;;;5017608;28;20475;-47
2021/09/03 04:02:25;;;;;;;9.50;7.90;;;20.30;53.20;;;;;;5020419;28;20981;-46
2021/09/03 04:04:51;;;;;;;7.87;7.13;;;20.20;54.10;;;;;;5025150;28;20200;-46
2021/09/03 04:07:16;;;;;;;9.00;8.13;;;20.10;53.70;;;;;;5015945;28;20228;-45
2021/09/03 04:09:42;;;;;;;8.50;7.70;;;20.10;53.60;;;;;;5021133;28;20193;-46
2021/09/03 04:12:09;;;;;;;8.80;7.83;;;20.10;53.40;;;;;;5035460;28;20196;-45
2021/09/03 04:14:35;;;;;;;7.80;6.60;;;20.00;53.30;;;;;;5020080;28;21872;-46
2021/09/03 04:17:00;;;;;;;10.70;7.30;;;20.00;54.30;;;;;;5017293;28;20449;-47
2021/09/03 04:19:26;;;;;;;7.53;6.13;;;20.00;53.70;;;;;;5016639;28;20681;-46
2021/09/03 04:21:51;;;;;;;6.97;6.27;;;20.00;53.30;;;;;;5022787;28;20288;-45
2021/09/03 04:24:17;;;;;;;8.30;6.97;;;20.00;53.40;;;;;;5024629;28;20264;-46
2021/09/03 04:26:43;;;;;;;7.70;7.00;;;20.00;53.70;;;;;;5013393;28;20279;-46
2021/09/03 04:29:08;;;;;;;8.83;7.20;;;20.00;53.20;;;;;;5015295;28;20668;-46
2021/09/03 04:31:34;;;;;;;9.20;8.40;;;20.10;54.60;;;;;;5017761;28;20443;-46
2021/09/03 04:34:00;;;;;;;8.67;7.80;;;20.10;54.10;;;;;;5013348;28;20205;-47
2021/09/03 04:36:26;;;;;;;8.90;8.20;;;20.20;53.90;;;;;;5018614;28;20234;-46
2021/09/03 04:38:51;;;;;;;9.73;8.83;;;20.20;53.30;;;;;;5012600;28;20620;-46
2021/09/03 04:41:17;;;;;;;9.83;8.93;;;20.20;53.10;;;;;;5013635;28;21208;-46
2021/09/03 04:43:42;;;;;;;10.93;8.20;;;20.30;52.90;;;;;;5016657;28;20190;-47
2021/09/03 04:46:08;;;;;;;8.20;7.50;;;20.30;52.90;;;;;;5016193;28;20696;-46
2021/09/03 04:48:34;;;;;;;8.03;7.33;;;20.30;52.90;;;;;;5017234;28;20320;-50
2021/09/03 04:50:59;;;;;;;9.07;8.20;;;20.30;52.10;;;;;;5016961;28;20190;-50
2021/09/03 04:53:25;;;;;;;8.43;7.63;;;20.20;51.90;;;;;;5016902;28;20229;-47
2021/09/03 04:55:52;;;;;;;9.43;8.40;;;20.20;52.30;;;;;;5017888;28;20610;-50
2021/09/03 04:58:18;;;;;;;8.20;7.50;;;20.20;51.70;;;;;;5019733;28;22168;-50
2021/09/03 05:00:44;;;;;;;8.53;7.83;;;20.10;51.10;;;;;;5016442;28;20453;-46
2021/09/03 05:03:09;;;;;;;8.63;7.93;;;20.00;51.30;;;;;;5014376;28;20198;-47
2021/09/03 05:05:35;;;;;;;8.57;7.17;;;19.90;52.40;;;;;;5017765;28;20226;-50
2021/09/03 05:08:00;;;;;;;9.03;8.23;;;19.90;53.00;;;;;;5013227;28;20196;-50
2021/09/03 05:10:26;;;;;;;7.97;7.17;;;19.90;52.60;;;;;;5019015;28;20220;-47
2021/09/03 05:12:52;;;;;;;9.37;8.47;;;19.90;53.00;;;;;;5015160;28;22041;-47
2021/09/03 05:15:18;;;;;;;9.93;7.93;;;19.90;52.10;;;;;;5022853;28;20228;-48
2021/09/03 05:17:48;;;;;;;11.73;6.60;;;19.70;51.90;;;;;;5017158;28;20264;-49
2021/09/03 05:20:15;;;;;;;6.33;5.70;;;19.50;56.80;;;;;;5026833;28;20494;-46
2021/09/03 05:22:40;;;;;;;9.83;5.60;;;19.60;55.70;;;;;;5025176;28;20771;-48
2021/09/03 05:25:09;;;;;;;7.70;7.00;;;19.80;54.40;;;;;;5031447;28;20458;-48
2021/09/03 05:27:35;;;;;;;7.17;6.20;;;19.90;53.80;;;;;;5020271;28;20260;-47
2021/09/03 05:30:00;;;;;;;8.90;7.97;;;20.00;53.20;;;;;;5014555;28;21191;-47
2021/09/03 05:32:26;;;;;;;13.13;11.93;;;20.00;53.10;;;;;;5023797;28;20500;-49
2021/09/03 05:34:51;;;;;;;14.90;13.33;;;20.00;53.40;;;;;;5026454;28;20198;-47
2021/09/03 05:37:17;;;;;;;13.70;12.50;;;20.10;53.30;;;;;;5013909;28;20204;-46
2021/09/03 05:39:43;;;;;;;15.43;14.10;;;20.20;52.90;;;;;;5018546;28;20208;-47
2021/09/03 05:42:10;;;;;;;12.30;11.30;;;20.20;52.80;;;;;;5022320;28;20244;-46
2021/09/03 05:44:36;;;;;;;13.60;12.30;;;20.30;52.70;;;;;;5036460;28;20242;-45
2021/09/03 05:47:02;;;;;;;12.13;11.03;;;20.30;52.70;;;;;;5020017;28;20480;-46
2021/09/03 05:49:28;;;;;;;10.43;9.53;;;20.40;52.60;;;;;;5022036;28;20197;-45
2021/09/03 05:51:53;;;;;;;10.00;9.10;;;20.40;52.60;;;;;;5022744;28;20272;-49
2021/09/03 05:54:19;;;;;;;10.80;9.80;;;20.40;52.70;;;;;;5031560;28;20520;-45
2021/09/03 05:56:44;;;;;;;10.90;9.90;;;20.40;52.60;;;;;;5022320;28;20212;-45
2021/09/03 05:59:10;;;;;;;9.70;8.80;;;20.40;52.70;;;;;;5025892;28;20364;-45
2021/09/03 06:01:36;;;;;;;9.67;8.77;;;20.50;52.60;;;;;;5025566;28;20202;-45
2021/09/03 06:04:01;;;;;;;8.43;7.57;;;20.60;52.30;;;;;;5026301;28;20224;-47
2021/09/03 06:06:27;;;;;;;11.87;8.40;;;20.70;52.10;;;;;;5022701;28;20321;-46
2021/09/03 06:08:52;;;;;;;8.63;7.13;;;20.70;52.00;;;;;;5023306;28;20224;-46
2021/09/03 06:11:25;;;;;;;9.50;7.20;;;20.70;51.80;;;;;;5028090;28;20200;-46
2021/09/03 06:13:52;;;;;;;8.43;7.63;;;20.80;51.60;;;;;;5026584;28;20196;-46
2021/09/03 06:16:17;;;;;;;8.30;6.70;;;20.80;51.50;;;;;;5022268;28;20440;-46
2021/09/03 06:18:43;;;;;;;8.90;7.37;;;20.90;51.40;;;;;;5020171;28;20468;-49
2021/09/03 06:21:09;;;;;;;7.87;7.03;;;21.00;51.40;;;;;;5012691;28;20194;-46
2021/09/03 06:23:34;;;;;;;9.23;6.70;;;21.10;51.40;;;;;;5013676;28;20663;-46
2021/09/03 06:26:00;;;;;;;7.70;6.90;;;21.10;51.30;;;;;;5024967;28;20630;-45
2021/09/03 06:28:26;;;;;;;8.83;6.33;;;21.20;51.40;;;;;;5026081;28;20186;-49
2021/09/03 06:30:51;;;;;;;6.90;6.20;;;21.40;51.50;;;;;;5012795;28;20204;-50
2021/09/03 06:33:17;;;;;;;7.77;7.03;;;21.50;51.70;;;;;;5015959;28;20205;-45
2021/09/03 06:35:42;;;;;;;11.07;7.20;;;21.50;51.60;;;;;;5029132;28;20208;-45
2021/09/03 06:38:08;;;;;;;8.67;6.10;;;21.70;51.70;;;;;;5023006;28;20190;-46
2021/09/03 06:40:34;;;;;;;7.57;6.83;;;21.80;51.80;;;;;;5022033;28;20649;-49
2021/09/03 06:42:59;;;;;;;7.73;6.93;;;21.90;51.80;;;;;;5022737;28;20558;-48
2021/09/03 06:45:25;;;;;;;8.67;7.77;;;22.00;51.60;;;;;;5021256;28;20189;-46
2021/09/03 06:47:51;;;;;;;9.70;7.10;;;22.10;51.40;;;;;;5019293;28;20189;-46
2021/09/03 06:50:18;;;;;;;7.33;6.13;;;22.30;51.70;;;;;;5030325;28;20451;-46
2021/09/03 06:52:44;;;;;;;8.20;6.90;;;22.30;51.70;;;;;;5026532;28;20200;-46
2021/09/03 06:55:11;;;;;;;7.43;6.63;;;22.50;51.40;;;;;;5030765;28;20630;-45
2021/09/03 06:57:39;;;;;;;8.97;7.40;;;22.60;51.30;;;;;;5030487;28;20457;-46
2021/09/03 07:00:05;;;;;;;9.53;7.20;;;22.70;51.40;;;;;;5031027;28;20432;-45
2021/09/03 07:02:31;;;;;;;8.10;7.30;;;22.80;51.40;;;;;;5028746;28;20424;-45
2021/09/03 07:04:57;;;;;;;8.27;6.70;;;22.90;51.40;;;;;;5042557;28;20534;-47
2021/09/03 07:07:22;;;;;;;7.30;6.60;;;23.00;51.50;;;;;;5051089;28;20563;-46
2021/09/03 07:09:48;;;;;;;7.70;6.90;;;23.10;51.70;;;;;;5050055;28;20239;-46
2021/09/03 07:12:14;;;;;;;8.87;6.90;;;23.10;51.60;;;;;;5050368;28;20203;-46
2021/09/03 07:14:40;;;;;;;7.50;6.03;;;23.20;51.70;;;;;;5035628;28;20280;-46
2021/09/03 07:17:06;;;;;;;12.27;7.60;;;23.30;51.70;;;;;;5033446;28;20197;-46
2021/09/03 07:19:34;;;;;;;10.73;7.20;;;23.40;51.40;;;;;;5049877;28;20458;-47
2021/09/03 07:22:01;;;;;;;12.27;7.77;;;23.60;51.50;;;;;;5050110;28;20469;-46
2021/09/03 07:24:26;;;;;;;7.90;7.20;;;23.70;51.20;;;;;;5050315;28;20910;-48
2021/09/03 07:26:52;;;;;;;11.53;8.17;;;23.90;51.00;;;;;;5039786;28;20519;-48
2021/09/03 07:29:17;;;;;;;7.20;6.50;;;23.90;50.70;;;;;;5038546;28;20200;-47
2021/09/03 07:31:43;;;;;;;7.30;6.60;;;24.00;50.50;;;;;;5029915;28;20305;-47
2021/09/03 07:34:09;;;;;;;7.20;6.53;;;24.00;50.10;;;;;;5030022;28;20204;-50
2021/09/03 07:36:34;;;;;;;8.30;7.03;;;24.10;50.30;;;;;;5025809;28;20238;-50
2021/09/03 07:39:00;;;;;;;8.40;6.40;;;24.20;49.70;;;;;;5023132;28;20197;-50
2021/09/03 07:41:26;;;;;;;8.13;7.20;;;24.30;50.20;;;;;;5029991;28;20202;-49
2021/09/03 07:43:51;;;;;;;8.37;7.10;;;24.30;49.30;;;;;;5023824;28;20225;-51
2021/09/03 07:46:17;;;;;;;7.90;7.10;;;24.20;50.00;;;;;;5020840;28;20244;-49
2021/09/03 07:48:43;;;;;;;7.23;6.13;;;24.10;49.10;;;;;;5029782;28;20392;-50
2021/09/03 07:51:08;;;;;;;7.67;6.80;;;24.10;50.10;;;;;;5039773;28;20331;-47
2021/09/03 07:53:34;;;;;;;7.10;6.40;;;24.30;50.10;;;;;;5032870;28;20189;-46
2021/09/03 07:56:00;;;;;;;6.63;6.03;;;24.60;50.10;;;;;;5018650;28;20197;-50
2021/09/03 07:58:25;;;;;;;6.43;5.90;;;24.80;50.30;;;;;;5023676;28;20193;-50
2021/09/03 08:00:51;;;;;;;7.70;5.60;;;25.00;50.20;;;;;;5042580;28;20433;-50
2021/09/03 08:03:17;;;;;;;6.67;6.07;;;25.20;50.60;;;;;;5023447;28;20240;-49
2021/09/03 08:05:43;;;;;;;10.40;6.80;;;25.30;49.10;;;;;;5035508;28;20788;-50
2021/09/03 08:08:08;;;;;;;6.80;6.20;;;25.30;48.60;;;;;;5034243;28;20197;-48
2021/09/03 08:10:35;;;;;;;7.53;6.43;;;25.50;48.90;;;;;;5036096;28;20276;-48
2021/09/03 08:13:01;;;;;;;9.03;6.73;;;25.60;48.90;;;;;;5044140;28;20189;-47
2021/09/03 08:15:28;;;;;;;6.70;6.10;;;25.60;48.00;;;;;;5016397;28;20439;-51
2021/09/03 08:17:54;;;;;;;6.50;5.90;;;25.60;48.00;;;;;;5032327;28;20551;-46
2021/09/03 08:20:20;;;;;;;7.40;6.70;;;25.60;47.50;;;;;;5029071;28;20432;-46
2021/09/03 08:22:48;;;;;;;6.70;6.10;;;25.70;47.40;;;;;;5026393;28;20431;-47
2021/09/03 08:25:14;;;;;;;7.13;6.30;;;25.70;47.70;;;;;;5031314;28;20618;-46
2021/09/03 08:27:40;;;;;;;7.00;6.30;;;25.80;48.30;;;;;;5020254;28;20498;-50
2021/09/03 08:30:07;;;;;;;7.10;6.40;;;25.90;47.50;;;;;;5033952;28;20436;-49
2021/09/03 08:32:33;;;;;;;6.70;6.10;;;25.90;46.70;;;;;;5032415;28;20462;-47
2021/09/03 08:34:59;;;;;;;7.43;6.63;;;26.00;46.80;;;;;;5019972;28;20431;-51
2021/09/03 08:37:25;;;;;;;9.30;6.10;;;26.10;45.60;;;;;;5029037;28;20202;-49
2021/09/03 08:39:51;;;;;;;7.00;6.30;;;26.10;46.40;;;;;;5031469;28;20251;-50
2021/09/03 08:42:17;;;;;;;7.40;6.67;;;26.20;46.50;;;;;;5023835;28;21659;-48
2021/09/03 08:44:44;;;;;;;6.53;5.93;;;26.40;46.70;;;;;;5030158;28;20205;-47
2021/09/03 08:47:10;;;;;;;6.30;5.33;;;26.30;45.60;;;;;;5020300;28;20477;-47
2021/09/03 08:49:36;;;;;;;7.13;6.43;;;26.20;44.70;;;;;;5024038;28;20802;-46
2021/09/03 08:52:01;;;;;;;6.60;6.00;;;26.00;44.90;;;;;;5018994;28;20429;-47
2021/09/03 08:54:27;;;;;;;7.17;6.30;;;26.10;45.30;;;;;;5030738;28;20213;-46
2021/09/03 08:56:52;;;;;;;6.80;6.13;;;26.10;45.40;;;;;;5026320;28;20190;-47
2021/09/03 08:59:18;;;;;;;6.20;5.60;;;26.30;45.60;;;;;;5021285;28;20622;-47
2021/09/03 09:02:04;;;;;;;6.90;5.83;;;26.30;44.70;;;;;;5021329;28;20619;-49
2021/09/03 09:04:36;;;;;;;6.17;5.57;;;25.80;45.50;;;;;;5021804;28;20205;-51
2021/09/03 09:07:03;;;;;;;6.30;5.70;;;25.60;46.50;;;;;;5016171;28;20828;-50
2021/09/03 09:09:34;;;;;;;6.87;6.27;;;25.90;46.60;;;;;;5024707;28;20859;-47
2021/09/03 09:12:12;;;;;;;7.73;6.33;;;26.00;46.00;;;;;;5022680;28;20447;-50
2021/09/03 09:15:02;;;;;;;7.63;6.00;;;25.90;45.80;;;;;;5018097;28;20848;-49
2021/09/03 09:17:49;;;;;;;7.70;6.90;;;26.00;46.10;;;;;;5025576;28;20514;-47
2021/09/03 09:20:17;;;;;;;6.37;5.60;;;26.20;45.90;;;;;;5037965;28;20478;-47
2021/09/03 09:22:53;;;;;;;5.73;5.13;;;26.70;45.90;;;;;;5031861;28;20432;-48
2021/09/03 09:25:21;;;;;;;6.60;6.10;;;27.00;44.90;;;;;;5032960;28;20454;-47
2021/09/03 09:27:48;;;;;;;6.33;5.73;;;27.20;43.90;;;;;;5040857;28;20487;-47
2021/09/03 09:30:26;;;;;;;7.63;6.60;;;27.50;43.50;;;;;;5016101;28;20445;-47
2021/09/03 09:33:12;;;;;;;7.00;6.30;;;27.80;44.70;;;;;;5020114;28;20800;-47
2021/09/03 09:35:43;;;;;;;6.13;5.53;;;28.10;43.30;;;;;;5022622;28;20475;-47
2021/09/03 09:38:09;;;;;;;6.00;5.50;;;28.20;42.40;;;;;;5033846;28;20458;-49
2021/09/03 09:40:46;;;;;;;6.70;6.10;;;28.30;41.70;;;;;;5025276;28;20471;-47
2021/09/03 09:43:22;;;;;;;6.60;5.80;;;28.20;41.80;;;;;;5012688;28;20275;-47
2021/09/03 09:46:13;;;;;;;7.00;6.20;;;28.20;41.30;;;;;;5030251;28;20480;-48
2021/09/03 09:48:51;;;;;;;6.63;6.03;;;27.70;41.60;;;;;;5020641;28;20443;-46
2021/09/03 09:51:29;;;;;;;7.90;6.60;;;27.60;42.50;;;;;;5021215;28;20444;-46
2021/09/03 09:54:30;;;;;;;6.80;6.10;;;27.80;42.40;;;;;;5027765;28;20437;-47
2021/09/03 09:57:00;;;;;;;7.10;6.13;;;27.90;41.70;;;;;;4981590;28;20488;-49
2021/09/03 09:59:27;;;;;;;6.80;6.10;;;28.10;42.40;;;;;;5023158;28;20444;-46
2021/09/03 10:01:59;;;;;;;7.37;5.70;;;28.30;42.00;;;;;;5023220;28;20965;-49
2021/09/03 10:04:27;;;;;;;8.40;6.80;;;28.50;42.50;;;;;;5016652;28;20437;-49
2021/09/03 10:06:57;;;;;;;6.60;6.00;;;28.70;41.90;;;;;;5027646;28;20495;-46
2021/09/03 10:09:25;;;;;;;6.17;5.53;;;28.60;42.00;;;;;;5028425;28;20998;-48
2021/09/03 10:11:53;;;;;;;7.37;6.67;;;28.70;41.70;;;;;;5025708;28;20428;-46
2021/09/03 10:14:25;;;;;;;7.40;6.70;;;28.10;41.40;;;;;;5024909;28;20437;-47
2021/09/03 10:16:51;;;;;;;8.43;6.40;;;28.20;42.30;;;;;;5022084;28;20452;-51
2021/09/03 10:19:25;;;;;;;7.70;6.30;;;28.70;42.00;;;;;;5012992;28;20483;-47
2021/09/03 10:21:55;;;;;;;6.43;5.93;;;28.90;40.90;;;;;;5033239;28;20844;-47
2021/09/03 10:24:24;;;;;;;9.70;6.60;;;29.20;40.00;;;;;;5023896;28;20444;-46
2021/09/03 10:26:53;;;;;;;7.23;6.40;;;29.70;40.80;;;;;;5017207;28;20913;-50
2021/09/03 10:29:22;;;;;;;7.93;6.40;;;29.90;39.90;;;;;;5015890;28;20537;-50
2021/09/03 10:32:06;;;;;;;7.23;6.53;;;29.10;38.50;;;;;;5024030;28;20476;-49
2021/09/03 10:37:12;;;;;;;7.27;5.70;;;29.50;40.30;;;;;;5029423;28;20440;-49
2021/09/03 10:39:47;;;;;;;7.10;6.10;;;29.60;39.60;;;;;;5021794;28;20451;-48
2021/09/03 10:42:37;;;;;;;5.87;5.37;;;30.00;39.10;;;;;;5019016;28;20444;-50
2021/09/03 10:45:08;;;;;;;6.10;5.50;;;30.40;39.50;;;;;;5028455;28;20539;-51
2021/09/03 10:47:50;;;;;;;8.13;6.10;;;30.20;38.60;;;;;;5023737;28;20550;-47
2021/09/03 10:50:37;;;;;;;6.90;6.20;;;30.60;38.20;;;;;;5038262;28;20936;-50
2021/09/03 10:53:02;;;;;;;7.20;5.60;;;31.00;38.20;;;;;;5027760;28;20481;-48
2021/09/03 10:55:50;;;;;;;6.87;5.80;;;31.00;36.60;;;;;;5029878;28;20604;-48
2021/09/03 10:58:37;;;;;;;6.77;6.17;;;31.20;36.60;;;;;;5039719;28;20197;-46
2021/09/03 11:01:30;;;;;;;5.60;5.10;;;31.10;36.10;;;;;;5035490;28;20448;-47
2021/09/03 11:04:15;;;;;;;6.63;6.03;;;30.90;37.30;;;;;;5018875;28;20479;-50
2021/09/03 11:06:49;;;;;;;6.13;5.63;;;31.30;37.60;;;;;;5024928;28;20492;-47
2021/09/03 11:09:15;;;;;;;5.90;5.17;;;31.30;36.20;;;;;;5028568;28;21146;-51
2021/09/03 11:11:41;;;;;;;6.27;5.77;;;31.60;36.00;;;;;;5028684;28;20438;-50
2021/09/03 11:14:18;;;;;;;6.20;5.60;;;31.40;36.50;;;;;;5029725;28;20201;-46
2021/09/03 11:16:48;;;;;;;7.00;6.40;;;31.40;36.30;;;;;;5028864;28;20436;-47
2021/09/03 11:19:17;;;;;;;6.10;5.60;;;31.60;37.70;;;;;;5022391;28;20572;-52
2021/09/03 11:21:56;;;;;;;6.53;5.93;;;31.60;36.20;;;;;;5027953;28;20439;-46
2021/09/03 11:24:27;;;;;;;5.80;5.30;;;31.30;34.90;;;;;;5033180;28;20471;-46
2021/09/03 11:26:55;;;;;;;6.33;5.83;;;31.30;35.60;;;;;;5028400;28;20994;-49
2021/09/03 11:29:27;;;;;;;6.07;5.50;;;31.50;36.80;;;;;;5029340;28;20439;-51
2021/09/03 11:31:58;;;;;;;5.90;5.43;;;31.70;35.00;;;;;;5032583;28;20524;-46
2021/09/03 11:34:47;;;;;;;11.67;5.83;;;31.80;34.70;;;;;;5030789;28;20439;-51
2021/09/03 11:37:29;;;;;;;6.27;5.67;;;32.10;34.30;;;;;;5027153;28;20464;-47
2021/09/03 11:40:13;;;;;;;6.57;5.97;;;31.80;34.70;;;;;;5028258;28;20920;-50
2021/09/03 11:43:06;;;;;;;5.97;5.47;;;32.10;34.90;;;;;;5031151;28;20432;-50
2021/09/03 11:45:38;;;;;;;5.77;5.27;;;32.30;34.80;;;;;;5030445;28;20455;-50
2021/09/03 11:48:05;;;;;;;5.80;5.30;;;32.70;34.10;;;;;;5032837;28;20863;-48
2021/09/03 11:50:40;;;;;;;5.77;5.27;;;32.50;32.10;;;;;;5036540;28;20440;-47
2021/09/03 11:53:10;;;;;;;7.10;4.80;;;32.20;32.40;;;;;;5025351;28;20431;-46
2021/09/03 11:55:38;;;;;;;5.73;4.87;;;32.30;33.40;;;;;;5032345;28;20431;-49
2021/09/03 11:58:12;;;;;;;5.20;4.80;;;32.30;32.90;;;;;;5028993;28;20558;-46
2021/09/03 12:00:43;;;;;;;5.50;5.00;;;32.60;32.70;;;;;;5030458;28;20450;-48
2021/09/03 12:03:32;;;;;;;5.60;5.10;;;32.90;32.40;;;;;;5030743;28;20440;-49
2021/09/03 12:06:00;;;;;;;5.37;4.97;;;32.90;31.50;;;;;;5026320;28;20490;-49
2021/09/03 12:08:28;;;;;;;5.45;4.63;;;33.00;31.30;;;;;;5019757;28;20792;-47
2021/09/03 12:11:14;;;;;;;5.60;4.97;;;33.20;32.20;;;;;;5018875;28;20201;-46
2021/09/03 12:13:51;;;;;;;5.20;4.70;;;33.20;31.50;;;;;;5028870;28;20440;-46
2021/09/03 12:16:22;;;;;;;5.67;5.27;;;33.20;32.00;;;;;;5044258;28;20434;-46
2021/09/03 12:18:49;;;;;;;5.13;4.63;;;33.30;31.00;;;;;;5028283;28;20536;-46
2021/09/03 12:21:14;;;;;;;13.43;6.10;;;33.00;31.80;;;;;;5028317;28;20456;-47
2021/09/03 12:23:43;;;;;;;9.70;5.70;;;33.40;31.10;;;;;;5016331;28;20447;-48
2021/09/03 12:26:11;;;;;;;7.57;4.93;;;33.50;30.90;;;;;;5029340;28;20712;-45
2021/09/03 12:28:38;;;;;;;6.73;6.00;;;33.70;30.30;;;;;;5020191;28;20523;-45
2021/09/03 12:31:09;;;;;;;14.33;6.30;;;33.90;30.80;;;;;;5019851;28;20936;-45
2021/09/03 12:33:35;;;;;;;6.63;5.30;;;34.20;31.40;;;;;;5023731;28;20528;-46
2021/09/03 12:36:07;;;;;;;6.90;5.70;;;34.30;29.80;;;;;;5019915;28;20441;-46
2021/09/03 12:38:37;;;;;;;9.00;5.33;;;34.40;30.00;;;;;;5025253;28;20807;-46
2021/09/03 12:41:19;;;;;;;7.97;4.80;;;34.40;30.60;;;;;;5026447;28;20439;-47
2021/09/03 12:43:50;;;;;;;6.10;5.57;;;34.50;29.60;;;;;;5024041;28;20445;-47
2021/09/03 12:46:17;;;;;;;5.97;5.47;;;34.50;29.00;;;;;;5024979;28;20855;-46
2021/09/03 12:48:59;;;;;;;5.50;5.03;;;34.20;29.00;;;;;;5026784;28;20456;-46
2021/09/03 12:51:25;;;;;;;5.60;5.20;;;33.50;29.20;;;;;;5018554;28;20432;-47
2021/09/03 12:53:52;;;;;;;6.93;4.70;;;33.60;30.10;;;;;;5024329;28;20810;-46